sensor_id;sensor_type;location;lat;lon;timestamp;P1;durP1;ratioP1;P2;durP2;ratioP2
4424;SDS011;2225;53.568;13.266;2023-10-09T00:01:43;5.90;;;1.93;;
4424;SDS011;2225;53.568;13.266;2023-10-09T00:04:12;6.33;;;2.00;;
4424;SDS011;2225;53.568;13.266;2023-10-09T00:06:40;6.50;;;2.10;;
4424;SDS011;2225;53.568;13.266;2023-10-09T00:09:08;6.97;;;1.70;;
4424;SDS011;2225;53.568;13.266;2023-10-09T00:11:51;5.23;;;1.80;;
4424;SDS011;2225;53.568;13.266;2023-10-09T00:14:27;5.77;;;2.00;;
4424;SDS011;2225;53.568;13.266;2023-10-09T00:16:56;5.40;;;1.80;;
4424;SDS011;2225;53.568;13.266;2023-10-09T00:19:38;8.33;;;1.43;;
4424;SDS011;2225;53.568;13.266;2023-10-09T00:22:05;4.77;;;1.50;;
4424;SDS011;2225;53.568;13.266;2023-10-09T00:24:56;5.10;;;1.90;;
4424;SDS011;2225;53.568;13.266;2023-10-09T00:27:41;7.30;;;1.60;;
4424;SDS011;2225;53.568;13.266;2023-10-09T00:30:12;5.30;;;1.20;;
4424;SDS011;2225;53.568;13.266;2023-10-09T00:32:55;5.80;;;1.40;;
4424;SDS011;2225;53.568;13.266;2023-10-09T00:35:27;6.10;;;2.00;;
4424;SDS011;2225;53.568;13.266;2023-10-09T00:38:06;4.60;;;1.37;;
4424;SDS011;2225;53.568;13.266;2023-10-09T00:40:44;5.40;;;1.60;;
4424;SDS011;2225;53.568;13.266;2023-10-09T00:43:18;4.70;;;1.30;;
4424;SDS011;2225;53.568;13.266;2023-10-09T00:45:46;6.17;;;1.70;;
4424;SDS011;2225;53.568;13.266;2023-10-09T00:48:13;7.13;;;1.80;;
4424;SDS011;2225;53.568;13.266;2023-10-09T00:50:48;4.90;;;1.33;;
4424;SDS011;2225;53.568;13.266;2023-10-09T00:53:20;5.30;;;1.43;;
4424;SDS011;2225;53.568;13.266;2023-10-09T00:55:58;5.00;;;1.57;;
4424;SDS011;2225;53.568;13.266;2023-10-09T00:58:47;5.23;;;1.43;;
4424;SDS011;2225;53.568;13.266;2023-10-09T01:01:22;5.50;;;1.50;;
4424;SDS011;2225;53.568;13.266;2023-10-09T01:03:54;6.83;;;1.70;;
4424;SDS011;2225;53.568;13.266;2023-10-09T01:06:23;4.70;;;1.23;;
4424;SDS011;2225;53.568;13.266;2023-10-09T01:08:54;4.10;;;1.10;;
4424;SDS011;2225;53.568;13.266;2023-10-09T01:11:34;5.40;;;1.40;;
4424;SDS011;2225;53.568;13.266;2023-10-09T01:14:00;4.90;;;1.53;;
4424;SDS011;2225;53.568;13.266;2023-10-09T01:16:48;5.80;;;1.43;;
4424;SDS011;2225;53.568;13.266;2023-10-09T01:19:15;6.40;;;1.40;;
4424;SDS011;2225;53.568;13.266;2023-10-09T01:21:51;5.90;;;1.40;;
4424;SDS011;2225;53.568;13.266;2023-10-09T01:24:18;11.53;;;1.50;;
4424;SDS011;2225;53.568;13.266;2023-10-09T01:26:47;7.00;;;1.70;;
4424;SDS011;2225;53.568;13.266;2023-10-09T01:29:16;5.70;;;1.20;;
4424;SDS011;2225;53.568;13.266;2023-10-09T01:31:50;6.63;;;1.67;;
4424;SDS011;2225;53.568;13.266;2023-10-09T01:34:22;6.53;;;1.77;;
4424;SDS011;2225;53.568;13.266;2023-10-09T01:37:06;5.83;;;1.67;;
4424;SDS011;2225;53.568;13.266;2023-10-09T01:40:03;6.30;;;1.90;;
4424;SDS011;2225;53.568;13.266;2023-10-09T01:42:50;6.63;;;1.63;;
4424;SDS011;2225;53.568;13.266;2023-10-09T01:45:17;6.30;;;1.70;;
4424;SDS011;2225;53.568;13.266;2023-10-09T01:47:45;8.50;;;2.03;;
4424;SDS011;2225;53.568;13.266;2023-10-09T01:50:18;4.40;;;1.20;;
4424;SDS011;2225;53.568;13.266;2023-10-09T01:52:48;5.17;;;1.60;;
4424;SDS011;2225;53.568;13.266;2023-10-09T01:55:17;7.10;;;1.87;;
4424;SDS011;2225;53.568;13.266;2023-10-09T01:57:55;7.00;;;1.93;;
4424;SDS011;2225;53.568;13.266;2023-10-09T02:00:32;4.90;;;1.50;;
4424;SDS011;2225;53.568;13.266;2023-10-09T02:03:02;5.47;;;1.47;;
4424;SDS011;2225;53.568;13.266;2023-10-09T02:05:32;6.80;;;2.00;;
4424;SDS011;2225;53.568;13.266;2023-10-09T02:08:03;5.73;;;2.13;;
4424;SDS011;2225;53.568;13.266;2023-10-09T02:10:32;5.50;;;1.60;;
4424;SDS011;2225;53.568;13.266;2023-10-09T02:12:59;5.60;;;1.33;;
4424;SDS011;2225;53.568;13.266;2023-10-09T02:15:37;7.80;;;1.90;;
4424;SDS011;2225;53.568;13.266;2023-10-09T02:18:13;7.80;;;1.90;;
4424;SDS011;2225;53.568;13.266;2023-10-09T02:20:53;6.30;;;1.83;;
4424;SDS011;2225;53.568;13.266;2023-10-09T02:23:26;6.43;;;1.80;;
4424;SDS011;2225;53.568;13.266;2023-10-09T02:26:06;6.60;;;1.97;;
4424;SDS011;2225;53.568;13.266;2023-10-09T02:28:43;8.70;;;2.13;;
4424;SDS011;2225;53.568;13.266;2023-10-09T02:31:11;6.13;;;1.97;;
4424;SDS011;2225;53.568;13.266;2023-10-09T02:33:39;8.40;;;2.30;;
4424;SDS011;2225;53.568;13.266;2023-10-09T02:36:06;8.17;;;1.73;;
4424;SDS011;2225;53.568;13.266;2023-10-09T02:38:33;6.27;;;2.27;;
4424;SDS011;2225;53.568;13.266;2023-10-09T02:41:04;5.23;;;1.67;;
4424;SDS011;2225;53.568;13.266;2023-10-09T02:43:34;7.80;;;2.30;;
4424;SDS011;2225;53.568;13.266;2023-10-09T02:46:14;7.20;;;2.10;;
4424;SDS011;2225;53.568;13.266;2023-10-09T02:48:45;7.83;;;2.17;;
4424;SDS011;2225;53.568;13.266;2023-10-09T02:51:20;9.83;;;2.50;;
4424;SDS011;2225;53.568;13.266;2023-10-09T02:53:57;6.80;;;2.10;;
4424;SDS011;2225;53.568;13.266;2023-10-09T02:56:34;6.30;;;2.07;;
4424;SDS011;2225;53.568;13.266;2023-10-09T02:59:04;5.50;;;1.80;;
4424;SDS011;2225;53.568;13.266;2023-10-09T03:01:35;6.13;;;1.83;;
4424;SDS011;2225;53.568;13.266;2023-10-09T03:04:05;5.90;;;2.10;;
4424;SDS011;2225;53.568;13.266;2023-10-09T03:06:37;6.37;;;1.67;;
4424;SDS011;2225;53.568;13.266;2023-10-09T03:09:12;7.90;;;2.10;;
4424;SDS011;2225;53.568;13.266;2023-10-09T03:11:45;8.27;;;1.90;;
4424;SDS011;2225;53.568;13.266;2023-10-09T03:14:20;5.90;;;2.13;;
4424;SDS011;2225;53.568;13.266;2023-10-09T03:16:51;7.27;;;2.27;;
4424;SDS011;2225;53.568;13.266;2023-10-09T03:19:18;5.67;;;1.87;;
4424;SDS011;2225;53.568;13.266;2023-10-09T03:21:45;5.80;;;1.87;;
4424;SDS011;2225;53.568;13.266;2023-10-09T03:24:13;8.00;;;1.80;;
4424;SDS011;2225;53.568;13.266;2023-10-09T03:26:40;5.93;;;1.97;;
4424;SDS011;2225;53.568;13.266;2023-10-09T03:29:07;10.37;;;1.73;;
4424;SDS011;2225;53.568;13.266;2023-10-09T03:31:36;6.67;;;2.03;;
4424;SDS011;2225;53.568;13.266;2023-10-09T03:34:04;5.07;;;1.43;;
4424;SDS011;2225;53.568;13.266;2023-10-09T03:36:32;5.93;;;2.20;;
4424;SDS011;2225;53.568;13.266;2023-10-09T03:39:05;7.03;;;2.20;;
4424;SDS011;2225;53.568;13.266;2023-10-09T03:41:52;4.87;;;1.60;;
4424;SDS011;2225;53.568;13.266;2023-10-09T03:44:20;6.27;;;2.30;;
4424;SDS011;2225;53.568;13.266;2023-10-09T03:46:48;6.10;;;2.10;;
4424;SDS011;2225;53.568;13.266;2023-10-09T03:49:17;5.97;;;1.60;;
4424;SDS011;2225;53.568;13.266;2023-10-09T03:51:52;6.53;;;2.30;;
4424;SDS011;2225;53.568;13.266;2023-10-09T03:54:19;6.60;;;1.87;;
4424;SDS011;2225;53.568;13.266;2023-10-09T03:56:47;7.07;;;2.33;;
4424;SDS011;2225;53.568;13.266;2023-10-09T03:59:21;8.87;;;2.30;;
4424;SDS011;2225;53.568;13.266;2023-10-09T04:01:48;5.17;;;2.00;;
4424;SDS011;2225;53.568;13.266;2023-10-09T04:04:17;7.23;;;2.70;;
4424;SDS011;2225;53.568;13.266;2023-10-09T04:06:49;9.23;;;3.00;;
4424;SDS011;2225;53.568;13.266;2023-10-09T04:09:17;7.47;;;2.20;;
4424;SDS011;2225;53.568;13.266;2023-10-09T04:11:48;10.90;;;2.23;;
4424;SDS011;2225;53.568;13.266;2023-10-09T04:14:39;10.60;;;2.40;;
4424;SDS011;2225;53.568;13.266;2023-10-09T04:17:27;5.67;;;1.90;;
4424;SDS011;2225;53.568;13.266;2023-10-09T04:20:02;6.50;;;2.43;;
4424;SDS011;2225;53.568;13.266;2023-10-09T04:23:02;5.97;;;2.27;;
4424;SDS011;2225;53.568;13.266;2023-10-09T04:25:32;6.93;;;2.43;;
4424;SDS011;2225;53.568;13.266;2023-10-09T04:28:09;6.57;;;2.53;;
4424;SDS011;2225;53.568;13.266;2023-10-09T04:30:43;6.20;;;1.90;;
4424;SDS011;2225;53.568;13.266;2023-10-09T04:33:10;6.30;;;2.07;;
4424;SDS011;2225;53.568;13.266;2023-10-09T04:35:55;7.17;;;2.30;;
4424;SDS011;2225;53.568;13.266;2023-10-09T04:38:46;8.73;;;2.87;;
4424;SDS011;2225;53.568;13.266;2023-10-09T04:41:30;7.50;;;2.13;;
4424;SDS011;2225;53.568;13.266;2023-10-09T04:44:09;7.00;;;2.27;;
4424;SDS011;2225;53.568;13.266;2023-10-09T04:46:46;6.60;;;2.50;;
4424;SDS011;2225;53.568;13.266;2023-10-09T04:49:34;15.07;;;2.50;;
4424;SDS011;2225;53.568;13.266;2023-10-09T04:52:14;6.00;;;2.03;;
4424;SDS011;2225;53.568;13.266;2023-10-09T04:55:05;5.33;;;2.10;;
4424;SDS011;2225;53.568;13.266;2023-10-09T04:57:40;7.17;;;1.90;;
4424;SDS011;2225;53.568;13.266;2023-10-09T05:00:28;7.53;;;2.10;;
4424;SDS011;2225;53.568;13.266;2023-10-09T05:02:59;8.80;;;2.70;;
4424;SDS011;2225;53.568;13.266;2023-10-09T05:05:38;14.80;;;4.20;;
4424;SDS011;2225;53.568;13.266;2023-10-09T05:08:11;14.60;;;2.50;;
4424;SDS011;2225;53.568;13.266;2023-10-09T05:10:50;7.03;;;2.53;;
4424;SDS011;2225;53.568;13.266;2023-10-09T05:13:34;6.10;;;2.33;;
4424;SDS011;2225;53.568;13.266;2023-10-09T05:16:10;8.17;;;2.70;;
4424;SDS011;2225;53.568;13.266;2023-10-09T05:18:59;6.27;;;2.20;;
4424;SDS011;2225;53.568;13.266;2023-10-09T05:21:30;6.13;;;2.30;;
4424;SDS011;2225;53.568;13.266;2023-10-09T05:24:00;9.47;;;2.53;;
4424;SDS011;2225;53.568;13.266;2023-10-09T05:26:38;8.90;;;2.70;;
4424;SDS011;2225;53.568;13.266;2023-10-09T05:29:14;10.50;;;3.00;;
4424;SDS011;2225;53.568;13.266;2023-10-09T05:31:48;10.10;;;2.60;;
4424;SDS011;2225;53.568;13.266;2023-10-09T05:34:42;8.50;;;2.60;;
4424;SDS011;2225;53.568;13.266;2023-10-09T05:37:25;8.07;;;2.77;;
4424;SDS011;2225;53.568;13.266;2023-10-09T05:40:04;6.70;;;2.30;;
4424;SDS011;2225;53.568;13.266;2023-10-09T05:42:44;6.27;;;2.83;;
4424;SDS011;2225;53.568;13.266;2023-10-09T05:45:23;9.70;;;3.03;;
4424;SDS011;2225;53.568;13.266;2023-10-09T05:48:16;7.90;;;2.57;;
4424;SDS011;2225;53.568;13.266;2023-10-09T05:50:44;8.07;;;3.30;;
4424;SDS011;2225;53.568;13.266;2023-10-09T05:53:29;8.33;;;2.77;;
4424;SDS011;2225;53.568;13.266;2023-10-09T05:56:12;8.73;;;3.03;;
4424;SDS011;2225;53.568;13.266;2023-10-09T05:58:58;10.33;;;3.40;;
4424;SDS011;2225;53.568;13.266;2023-10-09T06:01:43;7.17;;;2.70;;
4424;SDS011;2225;53.568;13.266;2023-10-09T06:04:25;8.73;;;2.90;;
4424;SDS011;2225;53.568;13.266;2023-10-09T06:07:11;7.93;;;2.80;;
4424;SDS011;2225;53.568;13.266;2023-10-09T06:09:40;7.47;;;3.40;;
4424;SDS011;2225;53.568;13.266;2023-10-09T06:12:22;9.53;;;3.57;;
4424;SDS011;2225;53.568;13.266;2023-10-09T06:14:59;7.30;;;3.13;;
4424;SDS011;2225;53.568;13.266;2023-10-09T06:17:46;8.77;;;2.67;;
4424;SDS011;2225;53.568;13.266;2023-10-09T06:20:19;10.80;;;3.40;;
4424;SDS011;2225;53.568;13.266;2023-10-09T06:23:04;7.63;;;2.50;;
4424;SDS011;2225;53.568;13.266;2023-10-09T06:25:43;9.03;;;3.43;;
4424;SDS011;2225;53.568;13.266;2023-10-09T06:28:17;7.80;;;2.90;;
4424;SDS011;2225;53.568;13.266;2023-10-09T06:30:45;11.70;;;2.87;;
4424;SDS011;2225;53.568;13.266;2023-10-09T06:33:14;6.73;;;2.93;;
4424;SDS011;2225;53.568;13.266;2023-10-09T06:35:55;7.00;;;3.10;;
4424;SDS011;2225;53.568;13.266;2023-10-09T06:38:23;8.50;;;3.50;;
4424;SDS011;2225;53.568;13.266;2023-10-09T06:40:59;8.20;;;4.20;;
4424;SDS011;2225;53.568;13.266;2023-10-09T06:43:38;10.70;;;3.27;;
4424;SDS011;2225;53.568;13.266;2023-10-09T06:46:15;8.90;;;3.70;;
4424;SDS011;2225;53.568;13.266;2023-10-09T06:49:08;9.90;;;4.10;;
4424;SDS011;2225;53.568;13.266;2023-10-09T06:51:55;14.27;;;4.37;;
4424;SDS011;2225;53.568;13.266;2023-10-09T06:54:24;8.80;;;4.20;;
4424;SDS011;2225;53.568;13.266;2023-10-09T06:56:56;8.60;;;3.67;;
4424;SDS011;2225;53.568;13.266;2023-10-09T06:59:22;7.47;;;3.53;;
4424;SDS011;2225;53.568;13.266;2023-10-09T07:01:51;7.10;;;3.30;;
4424;SDS011;2225;53.568;13.266;2023-10-09T07:04:36;8.07;;;3.80;;
4424;SDS011;2225;53.568;13.266;2023-10-09T07:07:04;7.97;;;3.40;;
4424;SDS011;2225;53.568;13.266;2023-10-09T07:09:36;10.73;;;4.27;;
4424;SDS011;2225;53.568;13.266;2023-10-09T07:12:09;8.43;;;3.33;;
4424;SDS011;2225;53.568;13.266;2023-10-09T07:14:41;10.63;;;4.30;;
4424;SDS011;2225;53.568;13.266;2023-10-09T07:17:27;10.63;;;3.63;;
4424;SDS011;2225;53.568;13.266;2023-10-09T07:20:00;8.80;;;3.30;;
4424;SDS011;2225;53.568;13.266;2023-10-09T07:23:02;7.50;;;3.33;;
4424;SDS011;2225;53.568;13.266;2023-10-09T07:25:42;10.83;;;3.60;;
4424;SDS011;2225;53.568;13.266;2023-10-09T07:28:23;12.53;;;3.80;;
4424;SDS011;2225;53.568;13.266;2023-10-09T07:31:03;8.27;;;3.80;;
4424;SDS011;2225;53.568;13.266;2023-10-09T07:33:30;7.70;;;3.60;;
4424;SDS011;2225;53.568;13.266;2023-10-09T07:36:18;9.20;;;3.47;;
4424;SDS011;2225;53.568;13.266;2023-10-09T07:39:02;9.23;;;3.63;;
4424;SDS011;2225;53.568;13.266;2023-10-09T07:41:40;7.10;;;3.40;;
4424;SDS011;2225;53.568;13.266;2023-10-09T07:44:28;12.37;;;3.50;;
4424;SDS011;2225;53.568;13.266;2023-10-09T07:47:03;9.30;;;3.20;;
4424;SDS011;2225;53.568;13.266;2023-10-09T07:50:00;8.60;;;3.03;;
4424;SDS011;2225;53.568;13.266;2023-10-09T07:52:28;8.07;;;3.90;;
4424;SDS011;2225;53.568;13.266;2023-10-09T07:54:55;8.70;;;3.10;;
4424;SDS011;2225;53.568;13.266;2023-10-09T07:57:29;10.40;;;3.20;;
4424;SDS011;2225;53.568;13.266;2023-10-09T08:00:05;7.80;;;3.17;;
4424;SDS011;2225;53.568;13.266;2023-10-09T08:02:39;11.67;;;4.33;;
4424;SDS011;2225;53.568;13.266;2023-10-09T08:05:06;9.13;;;3.40;;
4424;SDS011;2225;53.568;13.266;2023-10-09T08:07:47;9.63;;;3.10;;
4424;SDS011;2225;53.568;13.266;2023-10-09T08:10:33;7.67;;;3.60;;
4424;SDS011;2225;53.568;13.266;2023-10-09T08:13:01;10.10;;;3.70;;
4424;SDS011;2225;53.568;13.266;2023-10-09T08:15:48;19.37;;;4.00;;
4424;SDS011;2225;53.568;13.266;2023-10-09T08:18:22;15.50;;;4.20;;
4424;SDS011;2225;53.568;13.266;2023-10-09T08:20:57;10.47;;;3.43;;
4424;SDS011;2225;53.568;13.266;2023-10-09T08:23:24;9.10;;;3.47;;
4424;SDS011;2225;53.568;13.266;2023-10-09T08:26:15;10.70;;;3.60;;
4424;SDS011;2225;53.568;13.266;2023-10-09T08:28:55;8.47;;;3.90;;
4424;SDS011;2225;53.568;13.266;2023-10-09T08:31:42;9.87;;;3.90;;
4424;SDS011;2225;53.568;13.266;2023-10-09T08:34:12;9.53;;;3.73;;
4424;SDS011;2225;53.568;13.266;2023-10-09T08:37:10;10.33;;;3.97;;
4424;SDS011;2225;53.568;13.266;2023-10-09T08:39:39;11.93;;;4.37;;
4424;SDS011;2225;53.568;13.266;2023-10-09T08:42:08;9.30;;;3.80;;
4424;SDS011;2225;53.568;13.266;2023-10-09T08:44:37;10.57;;;3.63;;
4424;SDS011;2225;53.568;13.266;2023-10-09T08:47:10;9.33;;;3.40;;
4424;SDS011;2225;53.568;13.266;2023-10-09T08:49:39;8.47;;;3.77;;
4424;SDS011;2225;53.568;13.266;2023-10-09T08:52:05;7.50;;;3.53;;
4424;SDS011;2225;53.568;13.266;2023-10-09T08:54:32;11.00;;;4.33;;
4424;SDS011;2225;53.568;13.266;2023-10-09T08:57:00;9.40;;;3.70;;
4424;SDS011;2225;53.568;13.266;2023-10-09T08:59:27;11.93;;;3.60;;
4424;SDS011;2225;53.568;13.266;2023-10-09T09:01:54;8.97;;;3.57;;
4424;SDS011;2225;53.568;13.266;2023-10-09T09:04:39;11.60;;;4.63;;
4424;SDS011;2225;53.568;13.266;2023-10-09T09:07:27;12.33;;;3.90;;
4424;SDS011;2225;53.568;13.266;2023-10-09T09:10:00;10.23;;;3.77;;
4424;SDS011;2225;53.568;13.266;2023-10-09T09:12:44;10.67;;;3.70;;
4424;SDS011;2225;53.568;13.266;2023-10-09T09:15:14;9.10;;;3.30;;
4424;SDS011;2225;53.568;13.266;2023-10-09T09:17:46;8.40;;;3.40;;
4424;SDS011;2225;53.568;13.266;2023-10-09T09:20:19;10.13;;;3.50;;
4424;SDS011;2225;53.568;13.266;2023-10-09T09:22:54;9.77;;;4.00;;
4424;SDS011;2225;53.568;13.266;2023-10-09T09:25:23;11.87;;;3.83;;
4424;SDS011;2225;53.568;13.266;2023-10-09T09:27:51;7.30;;;3.03;;
4424;SDS011;2225;53.568;13.266;2023-10-09T09:30:22;11.60;;;3.37;;
4424;SDS011;2225;53.568;13.266;2023-10-09T09:32:52;7.73;;;3.10;;
4424;SDS011;2225;53.568;13.266;2023-10-09T09:35:38;14.60;;;3.00;;
4424;SDS011;2225;53.568;13.266;2023-10-09T09:38:09;10.47;;;3.50;;
4424;SDS011;2225;53.568;13.266;2023-10-09T09:40:43;13.80;;;3.90;;
4424;SDS011;2225;53.568;13.266;2023-10-09T09:43:11;10.17;;;3.13;;
4424;SDS011;2225;53.568;13.266;2023-10-09T09:45:48;10.40;;;4.17;;
4424;SDS011;2225;53.568;13.266;2023-10-09T09:48:19;10.50;;;3.73;;
4424;SDS011;2225;53.568;13.266;2023-10-09T09:50:46;15.20;;;4.73;;
4424;SDS011;2225;53.568;13.266;2023-10-09T09:53:14;10.70;;;3.97;;
4424;SDS011;2225;53.568;13.266;2023-10-09T09:55:46;10.60;;;3.70;;
4424;SDS011;2225;53.568;13.266;2023-10-09T09:58:23;9.80;;;3.10;;
4424;SDS011;2225;53.568;13.266;2023-10-09T10:00:53;11.00;;;3.90;;
4424;SDS011;2225;53.568;13.266;2023-10-09T10:03:31;8.90;;;3.13;;
4424;SDS011;2225;53.568;13.266;2023-10-09T10:06:05;10.60;;;3.00;;
4424;SDS011;2225;53.568;13.266;2023-10-09T10:08:36;8.50;;;3.80;;
4424;SDS011;2225;53.568;13.266;2023-10-09T10:11:05;9.53;;;3.40;;
4424;SDS011;2225;53.568;13.266;2023-10-09T10:16:10;7.90;;;3.27;;
4424;SDS011;2225;53.568;13.266;2023-10-09T10:19:00;8.80;;;3.40;;
4424;SDS011;2225;53.568;13.266;2023-10-09T10:21:38;8.30;;;3.23;;
4424;SDS011;2225;53.568;13.266;2023-10-09T10:27:18;9.37;;;3.47;;
4424;SDS011;2225;53.568;13.266;2023-10-09T10:33:02;7.40;;;3.00;;
4424;SDS011;2225;53.568;13.266;2023-10-09T10:35:36;10.40;;;3.70;;
4424;SDS011;2225;53.568;13.266;2023-10-09T10:41:07;9.80;;;3.33;;
4424;SDS011;2225;53.568;13.266;2023-10-09T10:43:40;8.30;;;3.63;;
4424;SDS011;2225;53.568;13.266;2023-10-09T10:46:17;8.40;;;3.20;;
4424;SDS011;2225;53.568;13.266;2023-10-09T10:48:59;17.80;;;6.00;;
4424;SDS011;2225;53.568;13.266;2023-10-09T10:51:41;18.40;;;6.40;;
4424;SDS011;2225;53.568;13.266;2023-10-09T10:54:22;10.60;;;3.87;;
4424;SDS011;2225;53.568;13.266;2023-10-09T10:57:15;12.30;;;6.27;;
4424;SDS011;2225;53.568;13.266;2023-10-09T10:59:46;10.97;;;4.43;;
4424;SDS011;2225;53.568;13.266;2023-10-09T11:02:16;10.43;;;4.23;;
4424;SDS011;2225;53.568;13.266;2023-10-09T11:04:54;8.60;;;3.77;;
4424;SDS011;2225;53.568;13.266;2023-10-09T11:07:22;9.60;;;3.40;;
4424;SDS011;2225;53.568;13.266;2023-10-09T11:09:53;9.63;;;4.00;;
4424;SDS011;2225;53.568;13.266;2023-10-09T11:12:31;9.07;;;4.00;;
4424;SDS011;2225;53.568;13.266;2023-10-09T11:15:34;12.07;;;4.27;;
4424;SDS011;2225;53.568;13.266;2023-10-09T11:18:14;10.70;;;3.70;;
4424;SDS011;2225;53.568;13.266;2023-10-09T11:20:54;12.17;;;3.60;;
4424;SDS011;2225;53.568;13.266;2023-10-09T11:23:43;10.03;;;3.13;;
4424;SDS011;2225;53.568;13.266;2023-10-09T11:26:24;10.77;;;4.53;;
4424;SDS011;2225;53.568;13.266;2023-10-09T11:32:03;12.20;;;3.93;;
4424;SDS011;2225;53.568;13.266;2023-10-09T11:34:32;11.00;;;3.67;;
4424;SDS011;2225;53.568;13.266;2023-10-09T11:39:39;8.23;;;3.03;;
4424;SDS011;2225;53.568;13.266;2023-10-09T11:42:25;12.10;;;3.97;;
4424;SDS011;2225;53.568;13.266;2023-10-09T11:45:22;8.17;;;3.47;;
4424;SDS011;2225;53.568;13.266;2023-10-09T11:47:58;10.70;;;3.77;;
4424;SDS011;2225;53.568;13.266;2023-10-09T11:51:12;13.93;;;3.77;;
4424;SDS011;2225;53.568;13.266;2023-10-09T11:53:45;7.87;;;3.40;;
4424;SDS011;2225;53.568;13.266;2023-10-09T11:56:16;9.97;;;3.50;;
4424;SDS011;2225;53.568;13.266;2023-10-09T11:58:49;9.20;;;3.47;;
4424;SDS011;2225;53.568;13.266;2023-10-09T12:01:17;7.60;;;2.93;;
4424;SDS011;2225;53.568;13.266;2023-10-09T12:03:46;8.03;;;3.00;;
4424;SDS011;2225;53.568;13.266;2023-10-09T12:06:19;20.00;;;3.90;;
4424;SDS011;2225;53.568;13.266;2023-10-09T12:08:49;6.87;;;2.90;;
4424;SDS011;2225;53.568;13.266;2023-10-09T12:11:16;11.07;;;3.83;;
4424;SDS011;2225;53.568;13.266;2023-10-09T12:13:51;7.97;;;3.63;;
4424;SDS011;2225;53.568;13.266;2023-10-09T12:16:24;7.67;;;3.20;;
4424;SDS011;2225;53.568;13.266;2023-10-09T12:18:54;14.60;;;3.60;;
4424;SDS011;2225;53.568;13.266;2023-10-09T12:21:21;7.20;;;3.33;;
4424;SDS011;2225;53.568;13.266;2023-10-09T12:23:49;10.17;;;3.50;;
4424;SDS011;2225;53.568;13.266;2023-10-09T12:26:16;8.33;;;3.63;;
4424;SDS011;2225;53.568;13.266;2023-10-09T12:28:44;9.07;;;3.23;;
4424;SDS011;2225;53.568;13.266;2023-10-09T12:31:16;8.70;;;3.53;;
4424;SDS011;2225;53.568;13.266;2023-10-09T12:33:47;9.90;;;3.33;;
4424;SDS011;2225;53.568;13.266;2023-10-09T12:36:16;10.10;;;3.27;;
4424;SDS011;2225;53.568;13.266;2023-10-09T12:38:47;8.23;;;3.77;;
4424;SDS011;2225;53.568;13.266;2023-10-09T12:41:20;12.77;;;3.70;;
4424;SDS011;2225;53.568;13.266;2023-10-09T12:43:55;11.03;;;3.90;;
4424;SDS011;2225;53.568;13.266;2023-10-09T12:46:28;11.83;;;3.60;;
4424;SDS011;2225;53.568;13.266;2023-10-09T12:48:59;8.53;;;3.60;;
4424;SDS011;2225;53.568;13.266;2023-10-09T12:51:27;10.37;;;4.07;;
4424;SDS011;2225;53.568;13.266;2023-10-09T12:53:57;7.70;;;3.60;;
4424;SDS011;2225;53.568;13.266;2023-10-09T12:56:25;8.70;;;3.90;;
4424;SDS011;2225;53.568;13.266;2023-10-09T12:59:05;9.30;;;3.77;;
4424;SDS011;2225;53.568;13.266;2023-10-09T13:01:33;9.70;;;3.43;;
4424;SDS011;2225;53.568;13.266;2023-10-09T13:04:10;12.97;;;4.07;;
4424;SDS011;2225;53.568;13.266;2023-10-09T13:06:44;10.20;;;3.63;;
4424;SDS011;2225;53.568;13.266;2023-10-09T13:09:12;10.00;;;3.53;;
4424;SDS011;2225;53.568;13.266;2023-10-09T13:11:42;9.17;;;3.30;;
4424;SDS011;2225;53.568;13.266;2023-10-09T13:14:10;11.80;;;3.10;;
4424;SDS011;2225;53.568;13.266;2023-10-09T13:16:44;8.93;;;3.67;;
4424;SDS011;2225;53.568;13.266;2023-10-09T13:19:12;10.17;;;4.20;;
4424;SDS011;2225;53.568;13.266;2023-10-09T13:21:39;10.33;;;4.20;;
4424;SDS011;2225;53.568;13.266;2023-10-09T13:24:06;9.80;;;4.27;;
4424;SDS011;2225;53.568;13.266;2023-10-09T13:26:39;10.17;;;3.57;;
4424;SDS011;2225;53.568;13.266;2023-10-09T13:29:07;12.63;;;5.30;;
4424;SDS011;2225;53.568;13.266;2023-10-09T13:31:36;11.47;;;5.00;;
4424;SDS011;2225;53.568;13.266;2023-10-09T13:34:04;11.93;;;5.17;;
4424;SDS011;2225;53.568;13.266;2023-10-09T13:36:36;12.03;;;5.40;;
4424;SDS011;2225;53.568;13.266;2023-10-09T13:39:04;14.87;;;5.90;;
4424;SDS011;2225;53.568;13.266;2023-10-09T13:41:46;14.57;;;5.43;;
4424;SDS011;2225;53.568;13.266;2023-10-09T13:44:13;12.93;;;5.30;;
4424;SDS011;2225;53.568;13.266;2023-10-09T13:46:41;12.73;;;6.00;;
4424;SDS011;2225;53.568;13.266;2023-10-09T13:49:08;11.60;;;5.30;;
4424;SDS011;2225;53.568;13.266;2023-10-09T13:51:40;10.70;;;4.57;;
4424;SDS011;2225;53.568;13.266;2023-10-09T13:54:12;8.90;;;4.73;;
4424;SDS011;2225;53.568;13.266;2023-10-09T13:56:47;11.87;;;5.97;;
4424;SDS011;2225;53.568;13.266;2023-10-09T13:59:19;14.87;;;6.27;;
4424;SDS011;2225;53.568;13.266;2023-10-09T14:01:49;15.73;;;6.60;;
4424;SDS011;2225;53.568;13.266;2023-10-09T14:04:16;11.40;;;5.47;;
4424;SDS011;2225;53.568;13.266;2023-10-09T14:06:45;16.53;;;6.27;;
4424;SDS011;2225;53.568;13.266;2023-10-09T14:09:13;11.50;;;4.83;;
4424;SDS011;2225;53.568;13.266;2023-10-09T14:11:59;14.80;;;6.43;;
4424;SDS011;2225;53.568;13.266;2023-10-09T14:14:34;10.00;;;5.33;;
4424;SDS011;2225;53.568;13.266;2023-10-09T14:17:07;13.90;;;6.03;;
4424;SDS011;2225;53.568;13.266;2023-10-09T14:19:40;12.10;;;5.50;;
4424;SDS011;2225;53.568;13.266;2023-10-09T14:22:14;13.40;;;6.20;;
4424;SDS011;2225;53.568;13.266;2023-10-09T14:24:47;11.97;;;6.10;;
4424;SDS011;2225;53.568;13.266;2023-10-09T14:27:22;12.53;;;5.37;;
4424;SDS011;2225;53.568;13.266;2023-10-09T14:29:53;10.73;;;4.60;;
4424;SDS011;2225;53.568;13.266;2023-10-09T14:32:27;11.00;;;5.00;;
4424;SDS011;2225;53.568;13.266;2023-10-09T14:34:55;10.40;;;5.17;;
4424;SDS011;2225;53.568;13.266;2023-10-09T14:37:27;12.40;;;4.67;;
4424;SDS011;2225;53.568;13.266;2023-10-09T14:39:56;10.57;;;4.17;;
4424;SDS011;2225;53.568;13.266;2023-10-09T14:42:23;12.30;;;5.17;;
4424;SDS011;2225;53.568;13.266;2023-10-09T14:44:54;10.00;;;4.83;;
4424;SDS011;2225;53.568;13.266;2023-10-09T14:47:22;9.97;;;4.23;;
4424;SDS011;2225;53.568;13.266;2023-10-09T14:49:49;10.83;;;4.47;;
4424;SDS011;2225;53.568;13.266;2023-10-09T14:52:16;8.70;;;3.73;;
4424;SDS011;2225;53.568;13.266;2023-10-09T14:54:45;9.43;;;4.20;;
4424;SDS011;2225;53.568;13.266;2023-10-09T14:57:13;9.80;;;3.97;;
4424;SDS011;2225;53.568;13.266;2023-10-09T14:59:40;10.60;;;4.03;;
4424;SDS011;2225;53.568;13.266;2023-10-09T15:02:10;11.40;;;4.80;;
4424;SDS011;2225;53.568;13.266;2023-10-09T15:04:39;10.70;;;4.13;;
4424;SDS011;2225;53.568;13.266;2023-10-09T15:07:06;8.67;;;4.47;;
4424;SDS011;2225;53.568;13.266;2023-10-09T15:09:36;11.00;;;4.30;;
4424;SDS011;2225;53.568;13.266;2023-10-09T15:12:08;10.07;;;4.73;;
4424;SDS011;2225;53.568;13.266;2023-10-09T15:14:37;12.90;;;4.80;;
4424;SDS011;2225;53.568;13.266;2023-10-09T15:17:05;10.97;;;4.80;;
4424;SDS011;2225;53.568;13.266;2023-10-09T15:19:33;15.27;;;4.50;;
4424;SDS011;2225;53.568;13.266;2023-10-09T15:22:00;12.57;;;4.90;;
4424;SDS011;2225;53.568;13.266;2023-10-09T15:24:28;16.43;;;6.03;;
4424;SDS011;2225;53.568;13.266;2023-10-09T15:26:56;12.30;;;4.80;;
4424;SDS011;2225;53.568;13.266;2023-10-09T15:29:24;14.17;;;5.60;;
4424;SDS011;2225;53.568;13.266;2023-10-09T15:31:57;13.63;;;5.17;;
4424;SDS011;2225;53.568;13.266;2023-10-09T15:34:31;9.87;;;5.50;;
4424;SDS011;2225;53.568;13.266;2023-10-09T15:37:02;11.67;;;5.37;;
4424;SDS011;2225;53.568;13.266;2023-10-09T15:39:36;11.63;;;4.93;;
4424;SDS011;2225;53.568;13.266;2023-10-09T15:42:03;9.13;;;4.50;;
4424;SDS011;2225;53.568;13.266;2023-10-09T15:44:32;17.93;;;5.50;;
4424;SDS011;2225;53.568;13.266;2023-10-09T15:47:03;9.13;;;4.57;;
4424;SDS011;2225;53.568;13.266;2023-10-09T15:49:35;11.30;;;5.33;;
4424;SDS011;2225;53.568;13.266;2023-10-09T15:52:10;10.63;;;5.37;;
4424;SDS011;2225;53.568;13.266;2023-10-09T15:54:40;11.80;;;5.20;;
4424;SDS011;2225;53.568;13.266;2023-10-09T15:57:09;15.23;;;6.30;;